Landes Station, West Virginia
Current Conditions -  °F | °C
As of 12:35 AM on Thursday 27 Nov 2014 (Local Time) from KW99 Reporting Station
Haze Haze  
Wind Chill: 32°   Ceiling: 300
Heat Index: 32°   Visibility: 0.75mi
Dew Point: 31°   Wind: 0mph
Humidity: 98%   Direction: NA
Pressure: 30"   Gusts: NA
Location:  38.9337°N, 79.1435°W
Report Text: KW99 270535Z AUTO 00000KT 3/4SM BR OVC003 00/00 A3000 RMK AO2 T00001003 PNO
Loading
Personal Weather Stations






























Interactive Weather Map New forecast layout! Learn more

10-Day Weather Forecast

Advertisements
Track Severe Weather on mobile